Time;durP1;ratioP1;P1;durP2;ratioP2;P2;SDS_P1;SDS_P2;PMS_P1;PMS_P2;Temp;Humidity;BMP_temperature;BMP_pressure;BME280_temperature;BME280_humidity;BME280_pressure;Samples;Min_cycle;Max_cycle;Signal;HPM_P1;HPM_P2
2021/12/07 00:00:07;;;;;;;6.00;4.70;;;;;;;;;;5053581;28;20049;-68
2021/12/07 00:02:33;;;;;;;4.88;4.38;;;;;;;;;;5055932;28;20123;-69
2021/12/07 00:04:59;;;;;;;5.82;4.80;;;;;;;;;;5054459;28;20133;-68
2021/12/07 00:07:26;;;;;;;5.28;4.45;;;;;;;;;;5056015;28;20136;-68
2021/12/07 00:09:52;;;;;;;6.18;4.72;;;;;;;;;;5054044;28;20491;-69
2021/12/07 00:12:18;;;;;;;5.03;4.53;;;;;;;;;;5054601;28;20060;-69
2021/12/07 00:14:45;;;;;;;5.07;4.20;;;;;;;;;;5054667;28;20059;-69
2021/12/07 00:17:12;;;;;;;6.00;4.47;;;;;;;;;;5053455;28;20544;-68
2021/12/07 00:19:38;;;;;;;5.25;4.35;;;;;;;;;;5054739;28;20068;-68
2021/12/07 00:22:06;;;;;;;6.10;4.97;;;;;;;;;;5063544;28;20451;-69
2021/12/07 00:24:37;;;;;;;6.18;4.68;;;;;;;;;;5054664;28;20056;-68
2021/12/07 00:27:04;;;;;;;6.80;4.90;;;;;;;;;;5054680;28;20053;-68
2021/12/07 00:29:30;;;;;;;5.78;5.03;;;;;;;;;;5052870;28;20054;-69
2021/12/07 00:32:15;;;;;;;6.32;5.20;;;;;;;;;;5067140;28;20053;-69
2021/12/07 00:35:23;;;;;;;7.95;5.43;;;;;;;;;;5061286;28;20488;-70
2021/12/07 00:37:32;;;;;;;9.43;6.20;;;;;;;;;;5067719;28;20146;-69
2021/12/07 00:39:59;;;;;;;9.85;5.75;;;;;;;;;;5054101;28;20497;-69
2021/12/07 00:42:25;;;;;;;9.35;6.50;;;;;;;;;;5056955;28;20057;-70
2021/12/07 00:44:52;;;;;;;9.82;6.30;;;;;;;;;;5052135;28;20053;-69
2021/12/07 00:47:18;;;;;;;10.02;7.25;;;;;;;;;;5068384;28;20489;-69
2021/12/07 00:49:44;;;;;;;10.73;7.97;;;;;;;;;;5055409;28;20045;-69
2021/12/07 00:52:11;;;;;;;12.00;8.43;;;;;;;;;;5055214;28;20064;-69
2021/12/07 00:54:38;;;;;;;11.80;8.95;;;;;;;;;;5053235;28;20053;-69
2021/12/07 00:57:04;;;;;;;12.07;8.23;;;;;;;;;;5054752;28;20053;-69
2021/12/07 00:59:31;;;;;;;12.32;8.88;;;;;;;;;;5062094;28;20056;-70
2021/12/07 01:01:58;;;;;;;12.50;8.55;;;;;;;;;;5053309;28;20060;-69
2021/12/07 01:04:26;;;;;;;10.95;8.45;;;;;;;;;;5056008;28;20588;-69
2021/12/07 01:09:33;;;;;;;13.90;8.65;;;;;;;;;;5053528;28;20509;-68
2021/12/07 01:25:49;;;;;;;16.58;11.77;;;;;;;;;;5061203;28;20045;-69
2021/12/07 01:28:27;;;;;;;15.82;11.65;;;;;;;;;;5061899;28;20053;-68
2021/12/07 01:39:36;;;;;;;20.80;11.85;;;;;;;;;;5063915;28;20128;-68
2021/12/07 01:42:45;;;;;;;16.50;11.60;;;;;;;;;;5058751;28;20050;-68
2021/12/07 01:47:24;;;;;;;17.90;11.68;;;;;;;;;;5063566;28;20053;-67
2021/12/07 01:50:16;;;;;;;15.90;12.02;;;;;;;;;;5049503;28;20052;-68
2021/12/07 01:57:52;;;;;;;20.80;11.57;;;;;;;;;;5053260;28;20053;-69
2021/12/07 02:01:00;;;;;;;18.93;12.57;;;;;;;;;;5049126;28;20053;-68
2021/12/07 02:03:27;;;;;;;17.83;11.80;;;;;;;;;;5073010;28;20084;-69
2021/12/07 02:05:53;;;;;;;19.73;11.73;;;;;;;;;;5066416;28;20053;-69
2021/12/07 02:08:21;;;;;;;21.92;13.65;;;;;;;;;;5055905;28;20046;-70
2021/12/07 02:10:47;;;;;;;17.50;11.85;;;;;;;;;;5057193;28;20088;-70
2021/12/07 02:14:02;;;;;;;19.00;11.52;;;;;;;;;;5041465;28;20050;-69
2021/12/07 02:16:07;;;;;;;18.77;11.73;;;;;;;;;;5040583;28;20045;-70
2021/12/07 02:18:33;;;;;;;23.50;11.25;;;;;;;;;;5072862;28;20053;-69
2021/12/07 02:21:32;;;;;;;18.25;11.80;;;;;;;;;;5061566;28;20053;-69
2021/12/07 02:23:58;;;;;;;22.48;11.52;;;;;;;;;;5057751;28;20059;-69
2021/12/07 02:26:25;;;;;;;20.75;11.13;;;;;;;;;;5070343;28;20056;-68
2021/12/07 02:28:52;;;;;;;18.63;10.70;;;;;;;;;;5067346;28;20594;-68
2021/12/07 02:31:19;;;;;;;19.15;11.68;;;;;;;;;;5051287;28;20049;-69
2021/12/07 02:33:45;;;;;;;16.05;9.90;;;;;;;;;;5049281;28;20057;-69
2021/12/07 02:36:12;;;;;;;20.73;11.18;;;;;;;;;;5053344;28;20049;-70
2021/12/07 02:38:38;;;;;;;28.63;11.77;;;;;;;;;;5072634;28;20060;-69
2021/12/07 02:41:05;;;;;;;19.63;10.63;;;;;;;;;;5075460;28;20069;-69
2021/12/07 02:43:31;;;;;;;23.17;11.13;;;;;;;;;;5068666;28;20050;-68
2021/12/07 02:45:58;;;;;;;23.85;10.88;;;;;;;;;;5058009;28;20084;-69
2021/12/07 02:48:25;;;;;;;17.00;9.63;;;;;;;;;;5057942;28;20575;-68
2021/12/07 02:50:51;;;;;;;21.77;10.07;;;;;;;;;;5059146;28;20064;-69
2021/12/07 02:53:21;;;;;;;17.65;8.77;;;;;;;;;;5059827;28;20148;-69
2021/12/07 02:55:48;;;;;;;23.65;9.52;;;;;;;;;;5065688;28;20501;-68
2021/12/07 02:58:15;;;;;;;18.58;8.43;;;;;;;;;;5075704;28;20147;-70
2021/12/07 03:00:49;;;;;;;24.55;8.32;;;;;;;;;;5056800;28;20088;-66
2021/12/07 03:03:16;;;;;;;18.83;9.73;;;;;;;;;;5047370;28;20110;-69
2021/12/07 03:06:11;;;;;;;32.05;8.25;;;;;;;;;;5075867;28;20077;-68
2021/12/07 03:27:35;;;;;;;28.65;4.88;;;;;;;;;;5058745;28;20052;-70
2021/12/07 03:30:05;;;;;;;11.05;4.65;;;;;;;;;;5058059;28;20789;-70
2021/12/07 03:32:31;;;;;;;12.32;4.60;;;;;;;;;;5075176;28;20141;-69
2021/12/07 03:34:58;;;;;;;18.42;4.03;;;;;;;;;;5074798;28;20081;-70
2021/12/07 03:37:24;;;;;;;10.23;3.25;;;;;;;;;;5071512;28;20079;-70
2021/12/07 03:39:50;;;;;;;14.55;3.38;;;;;;;;;;5075086;28;20053;-70
2021/12/07 03:42:16;;;;;;;12.73;3.33;;;;;;;;;;5074968;28;20104;-70
2021/12/07 03:44:43;;;;;;;15.00;3.38;;;;;;;;;;5066749;28;20052;-70
2021/12/07 03:47:09;;;;;;;9.60;3.10;;;;;;;;;;5055162;28;20580;-68
2021/12/07 03:49:35;;;;;;;14.10;3.20;;;;;;;;;;5055095;28;20058;-69
2021/12/07 03:52:02;;;;;;;12.45;2.55;;;;;;;;;;5054789;28;20057;-68
2021/12/07 03:54:28;;;;;;;9.57;2.10;;;;;;;;;;5055762;28;20064;-70
2021/12/07 03:56:54;;;;;;;15.35;2.40;;;;;;;;;;5067892;28;20092;-70
2021/12/07 03:59:20;;;;;;;9.80;1.80;;;;;;;;;;5066078;28;20057;-69
2021/12/07 04:01:47;;;;;;;7.97;1.80;;;;;;;;;;5058982;28;20049;-69
2021/12/07 04:04:14;;;;;;;15.10;2.55;;;;;;;;;;5054532;28;20136;-70
2021/12/07 04:06:41;;;;;;;7.95;2.40;;;;;;;;;;5072469;28;20185;-71
2021/12/07 04:09:07;;;;;;;11.98;2.00;;;;;;;;;;5068515;28;20060;-69
2021/12/07 04:11:33;;;;;;;14.77;3.08;;;;;;;;;;5054527;28;20583;-69
2021/12/07 04:14:00;;;;;;;8.07;1.77;;;;;;;;;;5056472;28;20144;-69
2021/12/07 04:16:26;;;;;;;13.10;2.00;;;;;;;;;;5054615;28;20132;-68
2021/12/07 04:18:53;;;;;;;5.97;2.03;;;;;;;;;;5074281;28;20587;-69
2021/12/07 04:21:19;;;;;;;7.43;2.33;;;;;;;;;;5074649;28;20048;-69
2021/12/07 04:23:46;;;;;;;8.65;1.92;;;;;;;;;;5072487;28;20049;-68
2021/12/07 04:26:13;;;;;;;8.43;2.17;;;;;;;;;;5063607;28;20061;-70
2021/12/07 04:28:40;;;;;;;11.80;1.83;;;;;;;;;;5053280;28;20054;-69
2021/12/07 04:31:06;;;;;;;6.82;1.67;;;;;;;;;;5053139;28;20057;-68
2021/12/07 04:33:33;;;;;;;9.40;2.50;;;;;;;;;;5052311;28;20085;-68
2021/12/07 04:36:00;;;;;;;14.30;1.83;;;;;;;;;;5052126;28;20053;-69
2021/12/07 04:38:27;;;;;;;6.22;1.70;;;;;;;;;;5046708;28;20065;-69
2021/12/07 04:40:53;;;;;;;11.10;3.00;;;;;;;;;;5042359;28;20053;-70
2021/12/07 04:43:20;;;;;;;11.98;3.22;;;;;;;;;;5054120;28;20532;-69
2021/12/07 04:45:56;;;;;;;11.48;2.13;;;;;;;;;;5054171;28;20576;-68
2021/12/07 04:48:56;;;;;;;8.63;2.13;;;;;;;;;;5053549;28;20060;-68
2021/12/07 04:57:51;;;;;;;12.27;2.38;;;;;;;;;;5053453;28;20064;-68
2021/12/07 04:59:45;;;;;;;14.30;2.00;;;;;;;;;;5048119;28;20562;-69
2021/12/07 05:02:12;;;;;;;19.10;2.83;;;;;;;;;;5053045;28;20066;-68
2021/12/07 05:04:38;;;;;;;12.88;2.70;;;;;;;;;;5057883;28;20050;-68
2021/12/07 05:07:12;;;;;;;12.10;2.33;;;;;;;;;;5051639;28;20049;-68
2021/12/07 05:14:43;;;;;;;8.15;2.58;;;;;;;;;;5051069;28;20500;-68
2021/12/07 05:17:24;;;;;;;12.88;2.55;;;;;;;;;;5051016;28;20532;-68
2021/12/07 05:25:39;;;;;;;13.75;2.63;;;;;;;;;;5053625;28;20132;-69
2021/12/07 05:39:06;;;;;;;10.32;2.20;;;;;;;;;;5028540;28;20103;-69
2021/12/07 05:41:33;;;;;;;12.15;2.78;;;;;;;;;;5049847;28;20516;-67
2021/12/07 05:43:59;;;;;;;11.02;2.33;;;;;;;;;;5037564;28;20053;-69
2021/12/07 05:46:26;;;;;;;10.32;2.03;;;;;;;;;;5053204;28;20137;-70
2021/12/07 05:48:52;;;;;;;15.90;3.58;;;;;;;;;;5056674;28;20485;-68
2021/12/07 05:51:18;;;;;;;12.35;3.70;;;;;;;;;;5054124;28;20058;-70
2021/12/07 05:53:45;;;;;;;21.05;3.97;;;;;;;;;;5055182;28;20599;-70
2021/12/07 05:56:11;;;;;;;14.95;3.03;;;;;;;;;;5064850;28;20058;-69
2021/12/07 05:58:37;;;;;;;15.07;2.60;;;;;;;;;;5061130;28;20055;-70
2021/12/07 06:01:04;;;;;;;12.20;2.80;;;;;;;;;;5064526;28;20050;-70
2021/12/07 06:03:30;;;;;;;7.45;2.17;;;;;;;;;;5059000;28;20064;-70
2021/12/07 06:06:01;;;;;;;13.57;3.88;;;;;;;;;;5054989;28;20092;-69
2021/12/07 06:08:28;;;;;;;15.27;3.40;;;;;;;;;;5050739;28;20092;-68
2021/12/07 06:10:54;;;;;;;18.65;3.65;;;;;;;;;;5054811;28;20497;-69
2021/12/07 06:13:23;;;;;;;16.58;4.25;;;;;;;;;;5062877;28;20053;-67
2021/12/07 06:15:50;;;;;;;11.45;3.00;;;;;;;;;;5062413;28;20132;-68
2021/12/07 06:18:16;;;;;;;11.77;2.83;;;;;;;;;;5056412;28;20136;-67
2021/12/07 06:20:44;;;;;;;11.02;3.17;;;;;;;;;;5061740;28;20057;-68
2021/12/07 06:23:11;;;;;;;14.90;3.47;;;;;;;;;;5051963;28;20575;-69
2021/12/07 06:25:38;;;;;;;11.88;2.92;;;;;;;;;;5054460;28;20049;-70
2021/12/07 06:28:04;;;;;;;9.75;3.45;;;;;;;;;;5072665;28;20144;-70
2021/12/07 06:30:31;;;;;;;16.15;3.45;;;;;;;;;;5060217;28;20053;-69
2021/12/07 06:32:57;;;;;;;12.52;3.38;;;;;;;;;;5064060;28;20141;-69
2021/12/07 06:35:24;;;;;;;14.40;3.25;;;;;;;;;;5072398;28;20048;-69
2021/12/07 06:37:50;;;;;;;10.60;3.30;;;;;;;;;;5056174;28;20064;-68
2021/12/07 06:40:21;;;;;;;12.60;2.90;;;;;;;;;;5056189;28;20485;-69
2021/12/07 06:42:48;;;;;;;10.35;2.90;;;;;;;;;;5048297;28;20060;-69
2021/12/07 06:45:14;;;;;;;18.55;3.58;;;;;;;;;;5052097;28;20505;-69
2021/12/07 06:47:40;;;;;;;12.00;3.67;;;;;;;;;;5062359;28;20073;-68
2021/12/07 06:50:08;;;;;;;14.60;2.95;;;;;;;;;;5052854;28;20059;-69
2021/12/07 06:52:34;;;;;;;8.48;3.15;;;;;;;;;;5049583;28;20172;-68
2021/12/07 06:55:01;;;;;;;14.90;3.80;;;;;;;;;;5053031;28;20063;-67
2021/12/07 06:57:27;;;;;;;14.35;3.10;;;;;;;;;;5048075;28;20059;-69
2021/12/07 06:59:53;;;;;;;19.20;3.95;;;;;;;;;;5050832;28;20046;-68
2021/12/07 07:02:20;;;;;;;16.80;3.92;;;;;;;;;;5060551;28;20058;-70
2021/12/07 07:04:46;;;;;;;17.70;4.32;;;;;;;;;;5049968;28;20057;-67
2021/12/07 07:07:13;;;;;;;15.95;4.43;;;;;;;;;;5048793;28;21097;-69
2021/12/07 07:09:39;;;;;;;11.50;4.25;;;;;;;;;;5049991;28;20061;-68
2021/12/07 07:12:05;;;;;;;11.27;3.63;;;;;;;;;;5049852;28;20151;-67
2021/12/07 07:14:32;;;;;;;15.30;4.15;;;;;;;;;;5051747;28;20056;-67
2021/12/07 07:16:58;;;;;;;13.18;4.20;;;;;;;;;;5050942;28;20149;-69
2021/12/07 07:19:24;;;;;;;14.35;3.88;;;;;;;;;;5048218;28;20256;-70
2021/12/07 07:21:51;;;;;;;15.15;4.75;;;;;;;;;;5050111;28;20093;-68
2021/12/07 07:24:17;;;;;;;22.27;4.93;;;;;;;;;;5053461;28;20423;-68
2021/12/07 07:26:43;;;;;;;13.85;4.40;;;;;;;;;;5059363;28;20055;-69
2021/12/07 07:29:10;;;;;;;15.23;4.30;;;;;;;;;;5056973;28;20139;-68
2021/12/07 07:31:40;;;;;;;10.77;4.30;;;;;;;;;;5046136;28;20526;-68
2021/12/07 07:34:06;;;;;;;14.88;5.13;;;;;;;;;;5040240;28;20063;-67
2021/12/07 07:36:33;;;;;;;15.35;4.95;;;;;;;;;;5052936;28;20053;-68
2021/12/07 07:38:59;;;;;;;11.90;4.38;;;;;;;;;;5063220;28;20045;-67
2021/12/07 07:41:25;;;;;;;13.13;4.78;;;;;;;;;;5053156;28;20133;-66
2021/12/07 07:43:52;;;;;;;15.10;4.88;;;;;;;;;;5060480;28;20058;-69
2021/12/07 07:46:18;;;;;;;16.30;4.35;;;;;;;;;;5052587;28;20061;-67
2021/12/07 07:48:45;;;;;;;17.67;4.68;;;;;;;;;;5052703;28;20053;-68
2021/12/07 07:51:12;;;;;;;13.85;3.53;;;;;;;;;;5051587;28;20061;-68
2021/12/07 07:53:38;;;;;;;8.82;4.03;;;;;;;;;;5058341;28;20050;-67
2021/12/07 07:56:04;;;;;;;15.65;4.13;;;;;;;;;;5052947;28;20188;-67
2021/12/07 07:58:31;;;;;;;15.32;4.80;;;;;;;;;;5058674;28;20056;-69
2021/12/07 08:00:57;;;;;;;10.48;3.60;;;;;;;;;;5061070;28;20489;-68
2021/12/07 08:03:24;;;;;;;15.18;5.70;;;;;;;;;;5067842;28;20640;-68
2021/12/07 08:05:51;;;;;;;19.30;4.20;;;;;;;;;;5053335;28;20482;-69
2021/12/07 08:08:19;;;;;;;10.00;4.38;;;;;;;;;;5051258;28;20417;-69
2021/12/07 08:10:46;;;;;;;15.25;3.47;;;;;;;;;;5072333;28;20072;-68
2021/12/07 08:13:13;;;;;;;7.50;3.35;;;;;;;;;;5059359;28;20060;-69
2021/12/07 08:15:42;;;;;;;10.77;3.50;;;;;;;;;;5054919;28;20059;-67
2021/12/07 08:18:09;;;;;;;16.40;3.33;;;;;;;;;;5054255;28;20050;-68
2021/12/07 08:20:36;;;;;;;21.33;5.40;;;;;;;;;;5032646;28;20132;-68
2021/12/07 08:23:06;;;;;;;19.13;4.47;;;;;;;;;;5060532;28;20056;-69
2021/12/07 08:25:37;;;;;;;16.23;4.68;;;;;;;;;;5056828;28;20050;-67
2021/12/07 08:28:08;;;;;;;13.98;3.80;;;;;;;;;;5052289;28;20054;-69
2021/12/07 08:30:35;;;;;;;13.05;4.65;;;;;;;;;;5064235;28;20049;-68
2021/12/07 08:33:02;;;;;;;15.88;4.20;;;;;;;;;;5053723;28;20049;-69
2021/12/07 08:35:28;;;;;;;10.48;3.65;;;;;;;;;;5052269;28;20084;-67
2021/12/07 08:37:55;;;;;;;15.70;3.65;;;;;;;;;;5051148;28;20053;-68
2021/12/07 08:40:23;;;;;;;11.60;3.70;;;;;;;;;;5057764;28;20053;-66
2021/12/07 08:42:50;;;;;;;8.43;3.35;;;;;;;;;;5068341;28;20164;-68
2021/12/07 08:45:17;;;;;;;11.43;3.40;;;;;;;;;;5062929;28;20136;-69
2021/12/07 08:47:43;;;;;;;11.38;3.30;;;;;;;;;;5052001;28;20077;-70
2021/12/07 08:50:14;;;;;;;15.90;3.80;;;;;;;;;;5051781;28;20053;-68
2021/12/07 08:52:41;;;;;;;9.90;3.35;;;;;;;;;;5058355;28;20132;-67
2021/12/07 09:00:30;;;;;;;14.00;3.97;;;;;;;;;;5051191;28;20056;-68
2021/12/07 09:02:56;;;;;;;21.10;5.18;;;;;;;;;;5054447;28;20096;-69
2021/12/07 09:05:24;;;;;;;11.40;3.97;;;;;;;;;;5059340;28;20053;-68
2021/12/07 09:07:50;;;;;;;13.52;3.78;;;;;;;;;;5051950;28;20065;-68
2021/12/07 09:10:17;;;;;;;12.18;3.63;;;;;;;;;;5054927;28;20053;-69
2021/12/07 09:12:43;;;;;;;11.45;3.53;;;;;;;;;;5055734;28;20059;-67
2021/12/07 09:15:10;;;;;;;12.00;3.40;;;;;;;;;;5051363;28;20501;-69
2021/12/07 09:17:37;;;;;;;14.93;4.28;;;;;;;;;;5056327;28;20050;-67
2021/12/07 09:20:10;;;;;;;11.88;3.35;;;;;;;;;;5050472;28;20063;-68
2021/12/07 09:22:36;;;;;;;11.60;4.03;;;;;;;;;;5051049;28;20053;-67
2021/12/07 09:25:03;;;;;;;14.63;4.05;;;;;;;;;;5050615;28;20103;-68
2021/12/07 09:27:29;;;;;;;12.38;4.03;;;;;;;;;;5050828;28;20486;-67
2021/12/07 09:30:00;;;;;;;10.82;3.40;;;;;;;;;;5051612;28;20055;-67
2021/12/07 09:32:27;;;;;;;13.85;5.20;;;;;;;;;;5067087;28;20080;-67
2021/12/07 09:34:54;;;;;;;12.82;3.92;;;;;;;;;;5062556;28;20053;-66
2021/12/07 09:37:21;;;;;;;15.68;4.30;;;;;;;;;;5055566;28;20049;-69
2021/12/07 09:39:47;;;;;;;12.55;3.50;;;;;;;;;;5062997;28;20068;-67
2021/12/07 09:42:14;;;;;;;9.43;3.58;;;;;;;;;;5065387;28;20067;-66
2021/12/07 09:44:40;;;;;;;28.35;5.03;;;;;;;;;;5071248;28;20055;-68
2021/12/07 09:47:06;;;;;;;20.33;4.32;;;;;;;;;;5064706;28;20057;-68
2021/12/07 09:49:33;;;;;;;13.07;4.65;;;;;;;;;;5055883;28;20053;-69
2021/12/07 09:51:59;;;;;;;12.02;4.07;;;;;;;;;;5049712;28;20534;-69
2021/12/07 09:54:25;;;;;;;13.70;4.85;;;;;;;;;;5051078;28;20066;-68
2021/12/07 09:56:52;;;;;;;20.48;5.43;;;;;;;;;;5049746;28;20503;-66
2021/12/07 09:59:18;;;;;;;11.52;4.60;;;;;;;;;;5055630;28;20148;-67
2021/12/07 10:01:50;;;;;;;17.73;5.60;;;;;;;;;;5051150;28;20060;-68
2021/12/07 10:04:18;;;;;;;15.98;5.30;;;;;;;;;;5054386;28;20055;-68
2021/12/07 10:06:47;;;;;;;14.82;5.05;;;;;;;;;;5052955;28;20061;-69
2021/12/07 10:09:13;;;;;;;14.75;4.85;;;;;;;;;;5050849;28;20127;-68
2021/12/07 10:11:40;;;;;;;21.02;6.32;;;;;;;;;;5047922;28;20508;-68
2021/12/07 10:14:06;;;;;;;14.20;5.47;;;;;;;;;;5049044;28;20053;-67
2021/12/07 10:16:32;;;;;;;26.17;7.38;;;;;;;;;;5049759;28;20060;-69
2021/12/07 10:18:59;;;;;;;17.23;6.10;;;;;;;;;;5049522;28;20140;-67
2021/12/07 10:21:27;;;;;;;15.60;5.97;;;;;;;;;;5049814;28;20057;-68
2021/12/07 10:24:01;;;;;;;22.42;6.57;;;;;;;;;;5049220;28;20050;-67
2021/12/07 10:26:30;;;;;;;14.05;4.93;;;;;;;;;;5048643;28;20391;-67
2021/12/07 10:28:56;;;;;;;16.80;6.40;;;;;;;;;;5049320;28;20527;-67
2021/12/07 10:31:28;;;;;;;14.23;6.97;;;;;;;;;;5049398;28;20471;-68
2021/12/07 10:33:54;;;;;;;16.95;6.63;;;;;;;;;;5047412;28;20057;-69
2021/12/07 10:36:23;;;;;;;17.30;6.55;;;;;;;;;;5048153;28;20136;-65
2021/12/07 10:38:58;;;;;;;18.88;7.05;;;;;;;;;;5049864;28;20155;-68
2021/12/07 10:41:26;;;;;;;25.00;6.80;;;;;;;;;;5042622;28;20058;-68
2021/12/07 10:44:02;;;;;;;23.65;7.15;;;;;;;;;;5037264;28;20120;-68
2021/12/07 10:46:33;;;;;;;23.52;6.90;;;;;;;;;;5052161;28;20049;-69
2021/12/07 10:49:17;;;;;;;16.90;6.55;;;;;;;;;;5051462;28;20061;-68
2021/12/07 10:52:02;;;;;;;24.77;6.90;;;;;;;;;;5049634;28;20081;-67
2021/12/07 10:54:31;;;;;;;15.35;6.68;;;;;;;;;;5049800;28;20140;-68
2021/12/07 10:56:58;;;;;;;21.58;6.63;;;;;;;;;;5050143;28;20057;-69
2021/12/07 10:59:26;;;;;;;18.08;6.53;;;;;;;;;;5048657;28;20046;-68
2021/12/07 11:01:55;;;;;;;12.30;5.68;;;;;;;;;;5049571;28;20057;-65
2021/12/07 11:04:35;;;;;;;30.30;7.45;;;;;;;;;;5053269;28;20050;-65
2021/12/07 11:07:04;;;;;;;23.80;6.35;;;;;;;;;;5067498;28;20536;-67
2021/12/07 11:10:21;;;;;;;21.83;6.15;;;;;;;;;;5063018;28;20056;-67
2021/12/07 11:13:14;;;;;;;20.83;6.07;;;;;;;;;;5057780;28;20042;-68
2021/12/07 11:15:37;;;;;;;21.52;7.40;;;;;;;;;;5044018;28;20096;-68
2021/12/07 11:18:07;;;;;;;17.92;5.93;;;;;;;;;;5053149;28;20059;-69
2021/12/07 11:20:34;;;;;;;25.08;6.88;;;;;;;;;;5050504;28;20049;-70
2021/12/07 11:23:03;;;;;;;23.42;6.78;;;;;;;;;;5055066;28;20063;-69
2021/12/07 11:31:12;;;;;;;24.13;7.78;;;;;;;;;;5053573;28;20053;-67
2021/12/07 11:33:38;;;;;;;21.25;7.18;;;;;;;;;;5053493;28;20053;-67
2021/12/07 11:36:18;;;;;;;23.63;6.55;;;;;;;;;;5054786;28;20064;-69
2021/12/07 11:38:47;;;;;;;14.15;5.57;;;;;;;;;;5053269;28;20144;-69
2021/12/07 11:41:20;;;;;;;22.88;6.35;;;;;;;;;;5054202;28;20053;-68
2021/12/07 11:43:50;;;;;;;17.02;5.65;;;;;;;;;;5054713;28;20059;-69
2021/12/07 11:46:21;;;;;;;17.52;5.75;;;;;;;;;;5054137;28;20068;-67
2021/12/07 11:48:48;;;;;;;21.98;6.28;;;;;;;;;;5051933;28;20127;-67
2021/12/07 11:51:14;;;;;;;25.10;6.07;;;;;;;;;;5051842;28;20139;-68
2021/12/07 11:53:41;;;;;;;15.35;5.88;;;;;;;;;;5054452;28;20135;-68
2021/12/07 11:56:07;;;;;;;18.73;6.07;;;;;;;;;;5053557;28;20182;-68
2021/12/07 11:58:33;;;;;;;22.35;6.20;;;;;;;;;;5054581;28;20174;-68
2021/12/07 12:01:05;;;;;;;15.32;5.55;;;;;;;;;;5052952;28;20054;-68
2021/12/07 12:03:32;;;;;;;22.58;6.10;;;;;;;;;;5052961;28;20061;-68
2021/12/07 12:05:59;;;;;;;18.38;5.70;;;;;;;;;;5063806;28;20073;-69
2021/12/07 12:08:29;;;;;;;19.88;6.95;;;;;;;;;;5064428;28;20205;-68
2021/12/07 12:11:00;;;;;;;20.58;6.53;;;;;;;;;;5052402;28;20060;-67
2021/12/07 12:13:50;;;;;;;20.08;5.78;;;;;;;;;;5052666;28;20050;-68
2021/12/07 12:16:25;;;;;;;22.50;7.25;;;;;;;;;;5070384;28;20054;-67
2021/12/07 12:19:10;;;;;;;15.82;5.90;;;;;;;;;;5053360;28;20049;-60
2021/12/07 12:21:49;;;;;;;31.88;6.80;;;;;;;;;;5051767;28;20512;-68
2021/12/07 12:24:27;;;;;;;18.85;5.85;;;;;;;;;;5057005;28;20053;-68
2021/12/07 12:27:10;;;;;;;12.93;5.22;;;;;;;;;;5052942;28;20103;-69
2021/12/07 12:29:38;;;;;;;13.70;5.47;;;;;;;;;;5058250;28;20057;-68
2021/12/07 12:32:05;;;;;;;15.88;5.55;;;;;;;;;;5052297;28;20079;-68
2021/12/07 12:34:34;;;;;;;13.43;5.72;;;;;;;;;;5052444;28;20119;-70
2021/12/07 12:37:16;;;;;;;17.23;5.25;;;;;;;;;;5052805;28;20137;-70
2021/12/07 12:39:50;;;;;;;17.20;5.82;;;;;;;;;;5053230;28;20053;-67
2021/12/07 12:42:36;;;;;;;12.63;5.60;;;;;;;;;;5044417;28;20057;-66
2021/12/07 12:45:04;;;;;;;16.77;6.15;;;;;;;;;;5036356;28;20111;-69
2021/12/07 12:47:31;;;;;;;14.52;5.55;;;;;;;;;;5051945;28;20059;-68
2021/12/07 12:50:12;;;;;;;18.15;7.75;;;;;;;;;;5050862;28;20056;-67
2021/12/07 12:52:44;;;;;;;13.82;6.93;;;;;;;;;;5056763;28;20432;-67
2021/12/07 12:55:43;;;;;;;17.52;6.18;;;;;;;;;;5064969;28;20093;-66
2021/12/07 12:58:34;;;;;;;12.52;5.28;;;;;;;;;;5032511;28;20052;-67
2021/12/07 13:01:10;;;;;;;17.42;5.53;;;;;;;;;;5043653;28;20058;-69
2021/12/07 13:03:57;;;;;;;19.70;5.05;;;;;;;;;;5055053;28;20076;-68
2021/12/07 13:06:24;;;;;;;15.52;4.45;;;;;;;;;;5067027;28;20559;-67
2021/12/07 13:09:20;;;;;;;11.85;4.20;;;;;;;;;;5071855;28;20056;-70
2021/12/07 13:11:46;;;;;;;14.65;4.30;;;;;;;;;;5073191;28;20521;-68
2021/12/07 13:14:21;;;;;;;14.57;4.07;;;;;;;;;;5058912;28;20057;-70
2021/12/07 13:16:49;;;;;;;10.57;3.72;;;;;;;;;;5056806;28;20463;-69
2021/12/07 13:19:15;;;;;;;16.60;4.40;;;;;;;;;;5070592;28;20132;-67
2021/12/07 13:21:42;;;;;;;14.90;4.63;;;;;;;;;;5072028;28;20053;-70
2021/12/07 13:24:14;;;;;;;11.23;4.03;;;;;;;;;;5071207;28;20588;-67
2021/12/07 13:26:44;;;;;;;10.23;4.45;;;;;;;;;;5054001;28;20523;-68
2021/12/07 13:29:12;;;;;;;14.07;4.70;;;;;;;;;;5051079;28;20057;-68
2021/12/07 13:31:40;;;;;;;16.45;4.40;;;;;;;;;;5053364;28;20133;-68
2021/12/07 13:34:08;;;;;;;10.73;4.20;;;;;;;;;;5052977;28;20052;-68
2021/12/07 13:36:34;;;;;;;13.43;4.75;;;;;;;;;;5065761;28;20136;-68
2021/12/07 13:39:10;;;;;;;19.63;4.18;;;;;;;;;;5053132;28;20104;-68
2021/12/07 13:41:54;;;;;;;14.68;4.65;;;;;;;;;;5051874;28;20061;-68
2021/12/07 13:44:21;;;;;;;19.30;4.70;;;;;;;;;;5053887;28;20050;-70
2021/12/07 13:46:50;;;;;;;8.18;4.30;;;;;;;;;;5054376;28;20491;-68
2021/12/07 13:49:20;;;;;;;16.10;4.32;;;;;;;;;;5050058;28;20111;-66
2021/12/07 13:51:46;;;;;;;10.10;4.13;;;;;;;;;;5054855;28;20056;-68
2021/12/07 13:54:16;;;;;;;14.10;4.93;;;;;;;;;;5062617;28;20053;-67
2021/12/07 13:56:43;;;;;;;17.45;4.10;;;;;;;;;;5052305;28;20049;-67
2021/12/07 13:59:13;;;;;;;13.45;4.45;;;;;;;;;;5066074;28;20949;-68
2021/12/07 14:01:41;;;;;;;13.60;4.30;;;;;;;;;;5069726;28;20053;-65
2021/12/07 14:04:08;;;;;;;12.77;4.40;;;;;;;;;;5051897;28;20054;-69
2021/12/07 14:06:34;;;;;;;16.00;4.55;;;;;;;;;;5051575;28;20068;-70
2021/12/07 14:09:06;;;;;;;12.38;4.70;;;;;;;;;;5051250;28;20571;-69
2021/12/07 14:11:32;;;;;;;13.80;4.90;;;;;;;;;;5050753;28;20052;-68
2021/12/07 14:13:58;;;;;;;14.35;4.18;;;;;;;;;;5052620;28;20049;-69
2021/12/07 14:16:26;;;;;;;11.95;4.18;;;;;;;;;;5051509;28;20049;-68
2021/12/07 14:18:53;;;;;;;12.63;4.57;;;;;;;;;;5049882;28;20056;-68
2021/12/07 14:21:20;;;;;;;12.05;4.15;;;;;;;;;;5052677;28;20489;-68
2021/12/07 14:23:51;;;;;;;12.85;4.95;;;;;;;;;;5051235;28;20061;-69
2021/12/07 14:26:17;;;;;;;10.27;4.70;;;;;;;;;;5050457;28;20079;-68
2021/12/07 14:28:46;;;;;;;13.50;5.00;;;;;;;;;;5055825;28;20144;-69
2021/12/07 14:31:12;;;;;;;11.85;4.97;;;;;;;;;;5066782;28;20098;-69
2021/12/07 14:33:40;;;;;;;10.95;4.63;;;;;;;;;;5057114;28;20077;-71
2021/12/07 14:36:07;;;;;;;15.48;4.93;;;;;;;;;;5052496;28;20057;-68
2021/12/07 14:38:34;;;;;;;11.20;4.20;;;;;;;;;;5056395;28;20054;-68
2021/12/07 14:41:04;;;;;;;11.40;4.15;;;;;;;;;;5074231;28;20057;-67
2021/12/07 14:43:30;;;;;;;13.77;4.95;;;;;;;;;;5069529;28;20501;-66
2021/12/07 14:45:58;;;;;;;16.35;4.05;;;;;;;;;;5064801;28;20081;-71
2021/12/07 14:48:24;;;;;;;14.45;4.63;;;;;;;;;;5056073;28;20054;-70
2021/12/07 14:50:50;;;;;;;11.70;4.63;;;;;;;;;;5055837;28;20045;-68
2021/12/07 14:53:30;;;;;;;10.73;4.63;;;;;;;;;;5056758;28;20519;-68
2021/12/07 14:55:57;;;;;;;16.13;4.53;;;;;;;;;;5033947;28;20054;-68
2021/12/07 14:58:30;;;;;;;13.57;4.28;;;;;;;;;;5034220;28;20197;-68
2021/12/07 15:00:56;;;;;;;14.63;4.70;;;;;;;;;;5042989;28;20107;-69
2021/12/07 15:03:32;;;;;;;14.73;4.47;;;;;;;;;;5059972;28;20080;-68
2021/12/07 15:05:59;;;;;;;14.30;4.30;;;;;;;;;;5053865;28;20151;-70
2021/12/07 15:08:25;;;;;;;11.38;4.03;;;;;;;;;;5055173;28;20548;-69
2021/12/07 15:10:51;;;;;;;15.50;5.28;;;;;;;;;;5067111;28;20140;-69
2021/12/07 15:13:21;;;;;;;10.60;4.20;;;;;;;;;;5059607;28;20512;-69
2021/12/07 15:15:47;;;;;;;11.00;4.43;;;;;;;;;;5047635;28;20061;-68
2021/12/07 15:18:13;;;;;;;15.85;4.50;;;;;;;;;;5046820;28;20050;-68
2021/12/07 15:20:39;;;;;;;11.63;4.05;;;;;;;;;;5050980;28;20473;-71
2021/12/07 15:23:06;;;;;;;9.52;3.92;;;;;;;;;;5055138;28;20060;-68
2021/12/07 15:25:32;;;;;;;9.63;3.22;;;;;;;;;;5054502;28;20610;-68
2021/12/07 15:27:59;;;;;;;13.40;3.85;;;;;;;;;;5064046;28;20053;-70
2021/12/07 15:30:26;;;;;;;14.52;4.60;;;;;;;;;;5060942;28;20061;-69
2021/12/07 15:32:53;;;;;;;10.63;4.15;;;;;;;;;;5052186;28;20576;-67
2021/12/07 15:35:20;;;;;;;12.20;4.00;;;;;;;;;;5053055;28;20053;-69
2021/12/07 15:37:46;;;;;;;14.90;3.97;;;;;;;;;;5053240;28;20519;-68
2021/12/07 15:40:13;;;;;;;18.27;4.22;;;;;;;;;;5053009;28;20057;-68
2021/12/07 15:42:41;;;;;;;17.90;4.35;;;;;;;;;;5051649;28;20065;-68
2021/12/07 15:45:11;;;;;;;15.43;3.80;;;;;;;;;;5062991;28;20049;-70
2021/12/07 15:47:40;;;;;;;18.80;5.22;;;;;;;;;;5055985;28;20053;-70
2021/12/07 15:50:14;;;;;;;13.98;4.05;;;;;;;;;;5050508;28;20060;-70
2021/12/07 15:52:42;;;;;;;10.40;3.05;;;;;;;;;;5053223;28;20053;-70
2021/12/07 15:55:18;;;;;;;12.50;3.25;;;;;;;;;;5057206;28;20057;-72
2021/12/07 15:57:49;;;;;;;8.98;3.10;;;;;;;;;;5069828;28;20053;-70
2021/12/07 16:00:20;;;;;;;14.30;3.40;;;;;;;;;;5073403;28;20124;-71
2021/12/07 16:02:54;;;;;;;9.05;3.70;;;;;;;;;;5066866;28;20143;-68
2021/12/07 16:05:41;;;;;;;9.52;3.15;;;;;;;;;;5061302;28;20486;-69
2021/12/07 16:08:14;;;;;;;11.60;3.08;;;;;;;;;;5071462;28;20511;-69
2021/12/07 16:10:41;;;;;;;12.45;3.95;;;;;;;;;;5071119;28;20057;-69
2021/12/07 16:13:12;;;;;;;11.70;3.45;;;;;;;;;;5054575;28;20484;-70